createdAt,value
2018-01-01T00:01:55.193Z,0
2018-01-01T00:02:55.817Z,0
2018-01-01T00:03:55.151Z,0
2018-01-01T00:04:54.909Z,0
2018-01-01T00:05:55.475Z,0
2018-01-01T00:06:56.000Z,0
2018-01-01T00:07:55.909Z,0
2018-01-01T00:08:55.889Z,0
2018-01-01T00:09:56.195Z,0
2018-01-01T00:10:56.253Z,0
2018-01-01T00:11:56.773Z,0
2018-01-01T00:12:57.412Z,0
2018-01-01T00:13:57.120Z,0
2018-01-01T00:14:57.268Z,0
2018-01-01T00:15:57.294Z,0
2018-01-01T00:16:57.144Z,0
2018-01-01T00:17:57.444Z,0
2018-01-01T00:18:57.483Z,0
2018-01-01T00:19:57.141Z,0
2018-01-01T00:20:57.487Z,0
2018-01-01T00:21:59.013Z,0
2018-01-01T00:22:57.657Z,0
2018-01-01T00:23:57.061Z,0
2018-01-01T00:24:57.737Z,0
2018-01-01T00:25:57.511Z,0
2018-01-01T00:26:57.974Z,0
2018-01-01T00:27:58.167Z,0
2018-01-01T00:28:58.400Z,0
2018-01-01T00:29:59.162Z,0
2018-01-01T00:30:58.650Z,0
2018-01-01T00:31:58.692Z,0
2018-01-01T00:32:58.744Z,0
2018-01-01T00:33:59.794Z,0
2018-01-01T00:34:59.083Z,0
2018-01-01T00:36:00.299Z,0
2018-01-01T00:36:59.216Z,0
2018-01-01T00:37:59.974Z,0
2018-01-01T00:38:59.558Z,0
2018-01-01T00:40:00.305Z,0
2018-01-01T00:40:59.609Z,0
2018-01-01T00:42:01.961Z,0
2018-01-01T00:42:59.637Z,0
2018-01-01T00:44:00.208Z,0
2018-01-01T00:45:01.335Z,0
2018-01-01T00:46:00.255Z,0
2018-01-01T00:47:00.230Z,0
2018-01-01T00:48:00.270Z,0
2018-01-01T00:49:00.465Z,0
2018-01-01T00:50:00.641Z,0
2018-01-01T00:51:00.743Z,0
2018-01-01T00:52:00.881Z,0
2018-01-01T00:53:01.406Z,0
2018-01-01T00:54:01.145Z,0
2018-01-01T00:55:01.189Z,0
2018-01-01T00:56:01.713Z,0
2018-01-01T00:57:01.725Z,0
2018-01-01T00:58:01.499Z,0
2018-01-01T00:59:01.532Z,0
2018-01-01T01:00:01.536Z,0
2018-01-01T01:01:45.493Z,0
2018-01-01T01:02:02.152Z,0
2018-01-01T01:03:01.512Z,0
2018-01-01T01:04:01.717Z,0
2018-01-01T01:05:01.860Z,0
2018-01-01T01:06:01.344Z,0
2018-01-01T01:07:03.491Z,0
2018-01-01T01:08:02.255Z,0
2018-01-01T01:09:02.601Z,0
2018-01-01T01:10:01.655Z,0
2018-01-01T01:11:03.284Z,0
2018-01-01T01:12:02.527Z,0
2018-01-01T01:13:46.517Z,0
2018-01-01T01:14:02.868Z,0
2018-01-01T01:15:02.985Z,0
2018-01-01T01:16:03.112Z,0
2018-01-01T01:17:02.831Z,0
2018-01-01T01:18:03.513Z,0
2018-01-01T01:19:04.246Z,0
2018-01-01T01:20:03.676Z,0
2018-01-01T01:21:04.577Z,0
2018-01-01T01:22:03.147Z,0
2018-01-01T01:23:03.269Z,0
2018-01-01T01:24:03.686Z,0
2018-01-01T01:25:03.447Z,0
2018-01-01T01:26:03.598Z,0
2018-01-01T01:27:03.455Z,0
2018-01-01T01:28:03.011Z,0
2018-01-01T01:29:02.802Z,0
2018-01-01T01:30:04.212Z,0
2018-01-01T01:31:03.202Z,0
2018-01-01T01:32:04.216Z,0
2018-01-01T01:33:03.798Z,0
2018-01-01T01:34:03.978Z,0
2018-01-01T01:35:03.890Z,0
2018-01-01T01:36:03.674Z,0
2018-01-01T01:37:03.174Z,0
2018-01-01T01:38:03.897Z,0
2018-01-01T01:39:03.780Z,0
2018-01-01T01:40:03.809Z,0
2018-01-01T01:41:03.775Z,0
2018-01-01T01:42:04.017Z,0
2018-01-01T01:43:03.694Z,0
2018-01-01T01:44:04.104Z,0
2018-01-01T01:45:04.950Z,0
2018-01-01T01:46:04.566Z,0
2018-01-01T01:47:05.225Z,0
2018-01-01T01:48:05.676Z,0
2018-01-01T01:49:05.820Z,0
2018-01-01T01:50:05.213Z,0
2018-01-01T01:51:05.263Z,0
2018-01-01T01:52:05.943Z,0
2018-01-01T01:53:05.641Z,0
2018-01-01T01:54:06.143Z,0
2018-01-01T01:55:05.400Z,0
2018-01-01T01:56:05.877Z,0
2018-01-01T01:57:05.950Z,0
2018-01-01T01:58:06.347Z,0
2018-01-01T01:59:06.047Z,0
2018-01-01T02:00:21.668Z,0
2018-01-01T02:01:07.015Z,0
2018-01-01T02:02:06.750Z,0
2018-01-01T02:03:06.900Z,0
2018-01-01T02:04:07.046Z,0
2018-01-01T02:05:07.677Z,0
2018-01-01T02:06:07.620Z,0
2018-01-01T02:07:07.437Z,0
2018-01-01T02:08:07.821Z,0
2018-01-01T02:09:09.508Z,0
2018-01-01T02:10:08.730Z,0
2018-01-01T02:11:08.145Z,0
2018-01-01T02:12:08.062Z,0
2018-01-01T02:13:08.406Z,0
2018-01-01T02:14:08.348Z,0
2018-01-01T02:15:08.506Z,0
2018-01-01T02:16:08.620Z,0
2018-01-01T02:17:08.977Z,0
2018-01-01T02:18:08.941Z,0
2018-01-01T02:19:09.088Z,0
2018-01-01T02:20:09.594Z,0
2018-01-01T02:21:09.539Z,0
2018-01-01T02:22:09.803Z,0
2018-01-01T02:23:09.813Z,0
2018-01-01T02:24:10.014Z,0
2018-01-01T02:25:09.628Z,0
2018-01-01T02:26:09.276Z,0
2018-01-01T02:27:10.713Z,0
2018-01-01T02:28:09.971Z,0
2018-01-01T02:29:10.043Z,0
2018-01-01T02:30:10.286Z,0
2018-01-01T02:31:10.446Z,0
2018-01-01T02:32:11.391Z,0
2018-01-01T02:33:10.913Z,0
2018-01-01T02:34:11.083Z,0
2018-01-01T02:35:11.091Z,0
2018-01-01T02:36:11.680Z,0
2018-01-01T02:37:11.963Z,0
2018-01-01T02:38:12.098Z,0
2018-01-01T02:39:13.146Z,0
2018-01-01T02:40:12.257Z,0
2018-01-01T02:41:13.040Z,0
2018-01-01T02:42:27.479Z,0
2018-01-01T02:43:13.240Z,0
2018-01-01T02:44:30.775Z,0
2018-01-01T02:45:13.084Z,0
2018-01-01T02:46:12.645Z,0
2018-01-01T02:47:12.435Z,0
2018-01-01T02:48:13.448Z,0
2018-01-01T02:49:12.670Z,0
2018-01-01T02:50:13.095Z,0
2018-01-01T02:51:12.986Z,0
2018-01-01T02:52:13.358Z,0
2018-01-01T02:53:14.747Z,0
2018-01-01T02:54:13.659Z,0
2018-01-01T02:55:14.239Z,0
2018-01-01T02:56:13.675Z,0
2018-01-01T02:57:13.553Z,0
2018-01-01T02:58:13.635Z,0
2018-01-01T02:59:13.918Z,0
2018-01-01T03:00:28.338Z,0
2018-01-01T03:01:28.899Z,0
2018-01-01T03:02:46.303Z,0
2018-01-01T03:03:28.732Z,0
2018-01-01T03:04:43.665Z,0
2018-01-01T03:05:29.398Z,0
2018-01-01T03:06:34.814Z,0
2018-01-01T03:08:03.712Z,0
2018-01-01T03:08:35.507Z,0
2018-01-01T03:09:49.167Z,0
2018-01-01T03:10:43.986Z,0
2018-01-01T03:11:44.240Z,0
2018-01-01T03:12:44.042Z,0
2018-01-01T03:13:44.321Z,0
2018-01-01T03:14:44.070Z,0
2018-01-01T03:15:44.182Z,0
2018-01-01T03:16:44.474Z,0
2018-01-01T03:17:49.596Z,0
2018-01-01T03:19:49.561Z,0
2018-01-01T03:20:50.438Z,0
2018-01-01T03:21:50.455Z,0
2018-01-01T03:22:51.063Z,0
2018-01-01T03:23:50.587Z,0
2018-01-01T03:24:52.831Z,0
2018-01-01T03:25:50.674Z,0
2018-01-01T03:26:52.050Z,0
2018-01-01T03:28:01.401Z,0
2018-01-01T03:28:50.122Z,0
2018-01-01T03:30:00.567Z,0
2018-01-01T03:31:00.484Z,0
2018-01-01T03:32:17.265Z,0
2018-01-01T03:33:00.907Z,0
2018-01-01T03:34:00.345Z,0
2018-01-01T03:35:02.932Z,0
2018-01-01T03:36:00.566Z,0
2018-01-01T03:38:15.431Z,0
2018-01-01T03:40:18.976Z,0
2018-01-01T03:41:15.926Z,0
2018-01-01T03:42:15.521Z,0
2018-01-01T03:43:16.379Z,0
2018-01-01T03:44:15.421Z,0
2018-01-01T03:45:16.671Z,0
2018-01-01T03:46:16.320Z,0
2018-01-01T03:47:16.584Z,0
2018-01-01T03:48:15.949Z,0
2018-01-01T03:49:30.798Z,0
2018-01-01T03:50:40.917Z,0
2018-01-01T03:51:42.206Z,0
2018-01-01T03:52:40.955Z,0
2018-01-01T03:53:41.724Z,0
2018-01-01T03:54:41.608Z,0
2018-01-01T03:55:41.725Z,0
2018-01-01T03:56:41.691Z,0
2018-01-01T03:57:41.813Z,0
2018-01-01T03:58:41.941Z,0
2018-01-01T03:59:41.288Z,0
2018-01-01T04:00:41.445Z,0
2018-01-01T04:01:42.380Z,0
2018-01-01T04:02:42.354Z,0
2018-01-01T04:03:41.551Z,0
2018-01-01T04:04:42.019Z,0
2018-01-01T04:05:42.002Z,0
2018-01-01T04:06:42.324Z,0
2018-01-01T04:07:41.551Z,0
2018-01-01T04:08:42.096Z,0
2018-01-01T04:09:57.178Z,0
2018-01-01T04:10:41.249Z,0
2018-01-01T04:11:42.216Z,0
2018-01-01T04:12:42.199Z,0
2018-01-01T04:13:42.249Z,0
2018-01-01T04:14:42.062Z,0
2018-01-01T04:15:42.046Z,0
2018-01-01T04:16:42.527Z,0
2018-01-01T04:17:42.475Z,0
2018-01-01T04:18:42.287Z,0
2018-01-01T04:19:42.744Z,0
2018-01-01T04:20:43.274Z,0
2018-01-01T04:21:42.936Z,0
2018-01-01T04:22:43.112Z,0
2018-01-01T04:23:43.301Z,0
2018-01-01T04:24:44.528Z,0
2018-01-01T04:25:44.073Z,0
2018-01-01T04:26:43.814Z,0
2018-01-01T04:27:44.254Z,0
2018-01-01T04:28:44.436Z,0
2018-01-01T04:29:44.640Z,0
2018-01-01T04:30:44.631Z,0
2018-01-01T04:31:45.204Z,0
2018-01-01T04:32:45.679Z,0
2018-01-01T04:33:45.043Z,0
2018-01-01T04:34:45.307Z,0
2018-01-01T04:35:44.808Z,0
2018-01-01T04:36:45.245Z,0
2018-01-01T04:37:45.419Z,0
2018-01-01T04:38:45.703Z,0
2018-01-01T04:39:46.246Z,0
2018-01-01T04:40:46.346Z,0
2018-01-01T04:41:45.995Z,0
2018-01-01T04:42:46.681Z,0
2018-01-01T04:43:47.012Z,0
2018-01-01T04:44:46.898Z,0
2018-01-01T04:45:46.389Z,0
2018-01-01T04:46:46.867Z,0
2018-01-01T04:47:46.457Z,0
2018-01-01T04:48:46.753Z,0
2018-01-01T04:49:47.218Z,0
2018-01-01T04:50:47.381Z,0
2018-01-01T04:51:47.951Z,0
2018-01-01T04:52:48.238Z,0
2018-01-01T04:53:47.719Z,0
2018-01-01T04:54:48.057Z,0
2018-01-01T04:55:48.095Z,0
2018-01-01T04:56:48.041Z,0
2018-01-01T04:57:48.662Z,0
2018-01-01T04:58:48.864Z,0
2018-01-01T04:59:48.813Z,0
2018-01-01T05:00:48.826Z,0
2018-01-01T05:01:49.229Z,0
2018-01-01T05:02:49.180Z,0
2018-01-01T05:03:48.915Z,0
2018-01-01T05:04:49.299Z,0
2018-01-01T05:05:49.496Z,0
2018-01-01T05:06:49.369Z,0
2018-01-01T05:07:49.795Z,0
2018-01-01T05:08:50.190Z,0
2018-01-01T05:09:50.334Z,0
2018-01-01T05:10:50.602Z,0
2018-01-01T05:11:50.737Z,0
2018-01-01T05:12:51.197Z,0
2018-01-01T05:13:51.626Z,0
2018-01-01T05:14:51.980Z,0
2018-01-01T05:15:51.539Z,0
2018-01-01T05:16:51.673Z,0
2018-01-01T05:17:51.410Z,0
2018-01-01T05:18:51.991Z,0
2018-01-01T05:19:52.173Z,0
2018-01-01T05:20:52.486Z,0
2018-01-01T05:21:52.230Z,0
2018-01-01T05:22:52.847Z,0
2018-01-01T05:23:52.688Z,0
2018-01-01T05:24:52.908Z,0
2018-01-01T05:25:52.728Z,0
2018-01-01T05:26:53.167Z,0
2018-01-01T05:27:53.577Z,0
2018-01-01T05:28:53.949Z,0
2018-01-01T05:29:54.337Z,0
2018-01-01T05:30:54.499Z,0
2018-01-01T05:31:54.534Z,0
2018-01-01T05:32:57.189Z,0
2018-01-01T05:33:55.742Z,0
2018-01-01T05:34:56.074Z,0
2018-01-01T05:35:55.731Z,0
2018-01-01T05:36:55.263Z,0
2018-01-01T05:37:56.411Z,0
2018-01-01T05:38:55.962Z,0
2018-01-01T05:39:55.588Z,0
2018-01-01T05:40:56.136Z,0
2018-01-01T05:41:55.784Z,0
2018-01-01T05:42:56.498Z,0
2018-01-01T05:43:55.858Z,0
2018-01-01T05:44:56.151Z,0
2018-01-01T05:45:56.678Z,0
2018-01-01T05:46:56.832Z,0
2018-01-01T05:47:57.404Z,0
2018-01-01T05:48:57.799Z,0
2018-01-01T05:49:58.199Z,0
2018-01-01T05:50:58.151Z,0
2018-01-01T05:51:58.463Z,0
2018-01-01T05:52:58.394Z,0
2018-01-01T05:53:58.514Z,0
2018-01-01T05:55:00.932Z,0
2018-01-01T05:55:59.678Z,0
2018-01-01T05:57:00.096Z,0
2018-01-01T05:58:00.458Z,0
2018-01-01T05:58:59.440Z,0
2018-01-01T06:00:00.473Z,0
2018-01-01T06:01:00.638Z,0
2018-01-01T06:02:01.470Z,0
2018-01-01T06:03:01.678Z,0
2018-01-01T06:04:01.927Z,0
2018-01-01T06:05:02.157Z,0
2018-01-01T06:06:00.919Z,0
2018-01-01T06:07:01.138Z,0
2018-01-01T06:08:00.860Z,0
2018-01-01T06:08:59.886Z,0
2018-01-01T06:09:59.665Z,0
2018-01-01T06:11:00.242Z,0
2018-01-01T06:11:59.876Z,0
2018-01-01T06:13:00.867Z,0
2018-01-01T06:14:01.016Z,0
2018-01-01T06:15:00.576Z,0
2018-01-01T06:16:01.022Z,0
2018-01-01T06:17:01.120Z,0
2018-01-01T06:18:00.731Z,0
2018-01-01T06:19:01.678Z,0
2018-01-01T06:20:02.715Z,0
2018-01-01T06:21:01.808Z,0
2018-01-01T06:22:01.674Z,0
2018-01-01T06:23:01.405Z,0
2018-01-01T06:24:02.463Z,0
2018-01-01T06:25:02.101Z,0
2018-01-01T06:26:02.221Z,0
2018-01-01T06:27:04.286Z,0
2018-01-01T06:28:03.384Z,0
2018-01-01T06:29:02.748Z,0
2018-01-01T06:30:03.250Z,0
2018-01-01T06:31:03.875Z,0
2018-01-01T06:32:03.250Z,0
2018-01-01T06:33:03.340Z,0
2018-01-01T06:34:03.527Z,0
2018-01-01T06:35:04.225Z,0
2018-01-01T06:36:04.863Z,0
2018-01-01T06:37:04.500Z,0
2018-01-01T06:38:04.188Z,0
2018-01-01T06:39:04.288Z,0
2018-01-01T06:40:04.200Z,0
2018-01-01T06:41:04.658Z,0
2018-01-01T06:42:04.674Z,0
2018-01-01T06:43:04.604Z,0
2018-01-01T06:44:04.196Z,0
2018-01-01T06:45:04.237Z,0
2018-01-01T06:46:04.552Z,0
2018-01-01T06:47:05.019Z,0
2018-01-01T06:48:04.715Z,0
2018-01-01T06:49:05.478Z,0
2018-01-01T06:50:04.702Z,0
2018-01-01T06:51:05.228Z,0
2018-01-01T06:52:05.373Z,0
2018-01-01T06:53:05.654Z,0
2018-01-01T06:54:05.590Z,0
2018-01-01T06:55:05.077Z,0
2018-01-01T06:56:05.604Z,0
2018-01-01T06:57:05.566Z,0
2018-01-01T06:58:05.643Z,0
2018-01-01T06:59:06.899Z,0
2018-01-01T07:00:20.660Z,0
2018-01-01T07:01:05.561Z,0
2018-01-01T07:02:05.874Z,0
2018-01-01T07:03:05.944Z,0
2018-01-01T07:04:06.517Z,0
2018-01-01T07:05:06.239Z,0
2018-01-01T07:06:06.574Z,0
2018-01-01T07:07:06.995Z,0
2018-01-01T07:08:06.966Z,0
2018-01-01T07:09:06.766Z,0
2018-01-01T07:10:07.026Z,5
2018-01-01T07:11:07.432Z,5
2018-01-01T07:12:07.209Z,5
2018-01-01T07:13:07.006Z,5
2018-01-01T07:14:07.213Z,5
2018-01-01T07:15:08.009Z,5
2018-01-01T07:16:07.669Z,5
2018-01-01T07:17:07.668Z,5
2018-01-01T07:18:07.096Z,5
2018-01-01T07:19:08.338Z,10
2018-01-01T07:20:08.268Z,10
2018-01-01T07:21:08.347Z,10
2018-01-01T07:22:08.850Z,10
2018-01-01T07:23:08.472Z,10
2018-01-01T07:24:08.107Z,10
2018-01-01T07:25:08.418Z,10
2018-01-01T07:26:09.089Z,15
2018-01-01T07:27:09.180Z,20
2018-01-01T07:28:08.099Z,20
2018-01-01T07:29:08.642Z,25
2018-01-01T07:30:08.916Z,25
2018-01-01T07:31:09.167Z,25
2018-01-01T07:32:09.575Z,25
2018-01-01T07:33:10.302Z,30
2018-01-01T07:34:09.410Z,30
2018-01-01T07:35:09.095Z,30
2018-01-01T07:36:08.896Z,30
2018-01-01T07:37:08.823Z,30
2018-01-01T07:38:09.055Z,30
2018-01-01T07:39:09.161Z,35
2018-01-01T07:40:09.377Z,40
2018-01-01T07:41:09.276Z,40
2018-01-01T07:42:11.363Z,45
2018-01-01T07:43:11.054Z,45
2018-01-01T07:44:09.559Z,50
2018-01-01T07:45:09.921Z,55
2018-01-01T07:46:09.587Z,55
2018-01-01T07:47:09.863Z,55
2018-01-01T07:48:11.397Z,55
2018-01-01T07:49:10.122Z,55
2018-01-01T07:50:10.502Z,60
2018-01-01T07:51:11.176Z,60
2018-01-01T07:52:13.133Z,60
2018-01-01T07:53:11.258Z,60
2018-01-01T07:54:10.690Z,65
2018-01-01T07:55:12.092Z,65
2018-01-01T07:56:10.904Z,70
2018-01-01T07:57:10.868Z,80
2018-01-01T07:58:11.229Z,90
2018-01-01T07:59:12.072Z,90
2018-01-01T08:00:26.208Z,90
2018-01-01T08:01:12.210Z,95
2018-01-01T08:02:12.273Z,90
2018-01-01T08:03:11.982Z,85
2018-01-01T08:04:11.814Z,85
2018-01-01T08:05:14.845Z,85
2018-01-01T08:06:12.269Z,85
2018-01-01T08:07:12.584Z,85
2018-01-01T08:08:12.387Z,80
2018-01-01T08:09:11.962Z,75
2018-01-01T08:10:12.453Z,75
2018-01-01T08:11:12.707Z,75
2018-01-01T08:12:12.738Z,75
2018-01-01T08:13:12.750Z,80
2018-01-01T08:14:12.822Z,75
2018-01-01T08:15:12.940Z,80
2018-01-01T08:16:14.346Z,80
2018-01-01T08:17:13.972Z,80
2018-01-01T08:18:13.703Z,80
2018-01-01T08:19:13.898Z,80
2018-01-01T08:20:15.642Z,80
2018-01-01T08:21:13.830Z,80
2018-01-01T08:22:13.747Z,85
2018-01-01T08:23:13.960Z,90
2018-01-01T08:24:15.082Z,90
2018-01-01T08:25:13.835Z,95
2018-01-01T08:26:14.092Z,105
2018-01-01T08:27:13.591Z,100
2018-01-01T08:28:14.457Z,110
2018-01-01T08:29:15.186Z,115
2018-01-01T08:30:14.431Z,125
2018-01-01T08:31:14.370Z,105
2018-01-01T08:32:14.755Z,110
2018-01-01T08:33:16.032Z,120
2018-01-01T08:34:16.184Z,115
2018-01-01T08:35:16.879Z,110
2018-01-01T08:36:17.012Z,135
2018-01-01T08:37:16.937Z,165
2018-01-01T08:38:16.390Z,155
2018-01-01T08:39:15.964Z,115
2018-01-01T08:40:14.796Z,120
2018-01-01T08:41:15.054Z,125
2018-01-01T08:42:14.930Z,135
2018-01-01T08:43:15.021Z,140
2018-01-01T08:44:14.060Z,140
2018-01-01T08:45:14.715Z,140
2018-01-01T08:46:16.673Z,140
2018-01-01T08:47:16.266Z,140
2018-01-01T08:48:16.418Z,140
2018-01-01T08:49:15.639Z,140
2018-01-01T08:50:16.565Z,140
2018-01-01T08:51:16.334Z,140
2018-01-01T08:52:15.561Z,145
2018-01-01T08:53:16.566Z,150
2018-01-01T08:54:17.657Z,155
2018-01-01T08:55:16.468Z,155
2018-01-01T08:56:14.976Z,145
2018-01-01T08:57:15.241Z,145
2018-01-01T08:58:15.051Z,155
2018-01-01T08:59:15.376Z,150
2018-01-01T09:00:29.372Z,160
2018-01-01T09:01:15.036Z,165
2018-01-01T09:02:15.436Z,155
2018-01-01T09:03:15.617Z,170
2018-01-01T09:04:15.246Z,175
2018-01-01T09:05:15.520Z,170
2018-01-01T09:06:16.382Z,170
2018-01-01T09:07:16.835Z,170
2018-01-01T09:08:17.027Z,185
2018-01-01T09:09:16.430Z,160
2018-01-01T09:10:16.920Z,150
2018-01-01T09:11:16.716Z,160
2018-01-01T09:12:18.624Z,170
2018-01-01T09:13:17.022Z,190
2018-01-01T09:14:19.594Z,190
2018-01-01T09:15:16.881Z,255
2018-01-01T09:16:20.138Z,265
2018-01-01T09:17:18.120Z,305
2018-01-01T09:18:17.873Z,310
2018-01-01T09:19:17.788Z,185
2018-01-01T09:20:18.350Z,155
2018-01-01T09:21:18.551Z,165
2018-01-01T09:22:18.750Z,255
2018-01-01T09:23:18.515Z,260
2018-01-01T09:24:18.653Z,200
2018-01-01T09:25:19.288Z,245
2018-01-01T09:26:20.562Z,190
2018-01-01T09:27:19.661Z,205
2018-01-01T09:28:19.559Z,325
2018-01-01T09:29:19.847Z,255
2018-01-01T09:30:19.739Z,320
2018-01-01T09:31:20.325Z,290
2018-01-01T09:32:19.328Z,280
2018-01-01T09:33:19.892Z,265
2018-01-01T09:34:20.534Z,205
2018-01-01T09:35:20.345Z,200
2018-01-01T09:36:20.504Z,230
2018-01-01T09:37:20.703Z,180
2018-01-01T09:38:21.056Z,165
2018-01-01T09:39:21.175Z,190
2018-01-01T09:40:21.512Z,225
2018-01-01T09:41:22.215Z,265
2018-01-01T09:42:21.439Z,210
2018-01-01T09:43:20.697Z,200
2018-01-01T09:44:22.555Z,215
2018-01-01T09:45:23.075Z,260
2018-01-01T09:46:22.429Z,235
2018-01-01T09:47:21.955Z,220
2018-01-01T09:48:21.265Z,270
2018-01-01T09:49:21.332Z,275
2018-01-01T09:50:21.939Z,300
2018-01-01T09:51:22.141Z,295
2018-01-01T09:52:21.929Z,255
2018-01-01T09:53:22.327Z,250
2018-01-01T09:54:22.786Z,265
2018-01-01T09:55:23.450Z,245
2018-01-01T09:56:23.108Z,265
2018-01-01T09:57:23.085Z,255
2018-01-01T09:58:23.204Z,305
2018-01-01T09:59:23.798Z,285
2018-01-01T10:00:28.847Z,305
2018-01-01T10:01:29.033Z,300
2018-01-01T10:02:30.107Z,305
2018-01-01T10:03:29.838Z,355
2018-01-01T10:04:29.640Z,320
2018-01-01T10:05:29.208Z,310
2018-01-01T10:06:32.000Z,325
2018-01-01T10:07:29.915Z,325
2018-01-01T10:08:30.250Z,320
2018-01-01T10:09:30.041Z,230
2018-01-01T10:10:30.353Z,280
2018-01-01T10:11:30.373Z,280
2018-01-01T10:12:30.577Z,275
2018-01-01T10:13:29.727Z,210
2018-01-01T10:14:30.299Z,205
2018-01-01T10:15:30.701Z,200
2018-01-01T10:16:29.952Z,225
2018-01-01T10:17:30.851Z,215
2018-01-01T10:18:31.946Z,240
2018-01-01T10:19:31.419Z,325
2018-01-01T10:20:32.719Z,225
2018-01-01T10:21:31.502Z,195
2018-01-01T10:22:31.666Z,205
2018-01-01T10:23:32.636Z,260
2018-01-01T10:24:32.632Z,275
2018-01-01T10:25:33.027Z,175
2018-01-01T10:26:30.810Z,255
2018-01-01T10:27:30.656Z,180
2018-01-01T10:28:31.297Z,175
2018-01-01T10:29:30.447Z,205
2018-01-01T10:30:31.232Z,335
2018-01-01T10:31:31.037Z,320
2018-01-01T10:32:31.301Z,300
2018-01-01T10:33:32.780Z,265
2018-01-01T10:34:31.831Z,315
2018-01-01T10:35:32.456Z,305
2018-01-01T10:36:31.480Z,220
2018-01-01T10:37:33.722Z,205
2018-01-01T10:38:31.778Z,160
2018-01-01T10:39:31.660Z,235
2018-01-01T10:40:31.762Z,270
2018-01-01T10:41:31.962Z,305
2018-01-01T10:42:31.938Z,260
2018-01-01T10:43:31.773Z,210
2018-01-01T10:44:31.073Z,300
2018-01-01T10:45:32.286Z,315
2018-01-01T10:46:31.678Z,240
2018-01-01T10:47:33.007Z,145
2018-01-01T10:48:32.190Z,175
2018-01-01T10:49:33.915Z,275
2018-01-01T10:50:33.374Z,290
2018-01-01T10:51:31.314Z,265
2018-01-01T10:52:33.187Z,295
2018-01-01T10:53:32.664Z,300
2018-01-01T10:54:32.675Z,295
2018-01-01T10:55:32.633Z,295
2018-01-01T10:56:31.723Z,290
2018-01-01T10:57:32.875Z,285
2018-01-01T10:58:31.735Z,260
2018-01-01T10:59:32.025Z,275
2018-01-01T11:00:32.646Z,285
2018-01-01T11:01:32.689Z,285
2018-01-01T11:02:32.789Z,285
2018-01-01T11:03:31.853Z,280
2018-01-01T11:04:32.664Z,300
2018-01-01T11:05:32.539Z,340
2018-01-01T11:06:32.613Z,340
2018-01-01T11:07:32.623Z,200
2018-01-01T11:08:32.701Z,275
2018-01-01T11:09:32.575Z,245
2018-01-01T11:10:32.501Z,265
2018-01-01T11:11:33.432Z,160
2018-01-01T11:12:33.741Z,170
2018-01-01T11:13:33.332Z,230
2018-01-01T11:14:33.274Z,200
2018-01-01T11:15:33.780Z,260
2018-01-01T11:16:33.201Z,240
2018-01-01T11:17:33.479Z,250
2018-01-01T11:18:33.734Z,235
2018-01-01T11:19:33.421Z,215
2018-01-01T11:20:34.397Z,220
2018-01-01T11:21:34.049Z,215
2018-01-01T11:22:35.055Z,205
2018-01-01T11:23:34.850Z,180
2018-01-01T11:24:33.991Z,205
2018-01-01T11:25:34.038Z,200
2018-01-01T11:26:35.520Z,155
2018-01-01T11:27:35.049Z,175
2018-01-01T11:28:34.963Z,155
2018-01-01T11:29:35.781Z,195
2018-01-01T11:30:35.759Z,140
2018-01-01T11:31:35.416Z,225
2018-01-01T11:32:35.993Z,225
2018-01-01T11:33:35.874Z,215
2018-01-01T11:34:35.883Z,160
2018-01-01T11:35:35.834Z,180
2018-01-01T11:36:35.928Z,170
2018-01-01T11:37:36.380Z,165
2018-01-01T11:38:36.577Z,180
2018-01-01T11:39:37.495Z,185
2018-01-01T11:40:37.022Z,170
2018-01-01T11:41:37.232Z,175
2018-01-01T11:42:37.329Z,205
2018-01-01T11:43:37.454Z,150
2018-01-01T11:44:37.213Z,175
2018-01-01T11:45:37.140Z,200
2018-01-01T11:46:38.198Z,205
2018-01-01T11:47:38.986Z,180
2018-01-01T11:48:38.494Z,130
2018-01-01T11:49:38.871Z,150
2018-01-01T11:50:38.173Z,185
2018-01-01T11:51:38.474Z,150
2018-01-01T11:52:38.797Z,160
2018-01-01T11:53:39.094Z,145
2018-01-01T11:54:37.948Z,155
2018-01-01T11:55:37.990Z,160
2018-01-01T11:56:37.987Z,170
2018-01-01T11:57:38.734Z,180
2018-01-01T11:58:38.482Z,205
2018-01-01T11:59:39.020Z,200
2018-01-01T12:00:39.267Z,170
2018-01-01T12:01:39.326Z,145
2018-01-01T12:02:39.164Z,140
2018-01-01T12:03:39.139Z,125
2018-01-01T12:04:39.656Z,110
2018-01-01T12:05:38.866Z,95
2018-01-01T12:06:39.369Z,100
2018-01-01T12:07:39.709Z,85
2018-01-01T12:08:39.432Z,85
2018-01-01T12:09:39.074Z,85
2018-01-01T12:10:40.191Z,90
2018-01-01T12:11:39.909Z,80
2018-01-01T12:12:40.036Z,70
2018-01-01T12:13:39.696Z,75
2018-01-01T12:14:40.440Z,80
2018-01-01T12:15:39.486Z,75
2018-01-01T12:16:41.107Z,80
2018-01-01T12:17:40.466Z,80
2018-01-01T12:18:41.683Z,70
2018-01-01T12:19:40.683Z,65
2018-01-01T12:20:40.646Z,60
2018-01-01T12:21:40.442Z,90
2018-01-01T12:22:42.425Z,90
2018-01-01T12:23:42.396Z,75
2018-01-01T12:24:41.611Z,90
2018-01-01T12:25:41.243Z,115
2018-01-01T12:26:40.727Z,90
2018-01-01T12:27:41.041Z,90
2018-01-01T12:28:41.541Z,95
2018-01-01T12:29:42.478Z,95
2018-01-01T12:30:41.169Z,95
2018-01-01T12:31:43.884Z,95
2018-01-01T12:32:41.488Z,90
2018-01-01T12:33:43.385Z,80
2018-01-01T12:34:43.139Z,80
2018-01-01T12:35:42.612Z,75
2018-01-01T12:36:42.092Z,70
2018-01-01T12:37:42.403Z,70
2018-01-01T12:38:41.701Z,70
2018-01-01T12:39:42.295Z,70
2018-01-01T12:40:41.729Z,75
2018-01-01T12:41:41.769Z,80
2018-01-01T12:42:41.179Z,80
2018-01-01T12:43:41.175Z,85
2018-01-01T12:44:41.541Z,85
2018-01-01T12:45:41.814Z,90
2018-01-01T12:46:41.612Z,100
2018-01-01T12:47:41.603Z,110
2018-01-01T12:48:41.422Z,110
2018-01-01T12:49:41.908Z,125
2018-01-01T12:50:41.963Z,130
2018-01-01T12:51:42.182Z,110
2018-01-01T12:52:42.607Z,105
2018-01-01T12:53:41.974Z,105
2018-01-01T12:54:42.506Z,115
2018-01-01T12:55:42.532Z,110
2018-01-01T12:56:42.479Z,110
2018-01-01T12:57:42.997Z,130
2018-01-01T12:58:42.781Z,125
2018-01-01T12:59:43.741Z,105
2018-01-01T13:00:43.493Z,95
2018-01-01T13:01:43.200Z,85
2018-01-01T13:02:43.612Z,85
2018-01-01T13:03:44.145Z,85
2018-01-01T13:04:43.555Z,90
2018-01-01T13:05:44.372Z,100
2018-01-01T13:06:44.260Z,100
2018-01-01T13:07:44.419Z,100
2018-01-01T13:08:44.704Z,95
2018-01-01T13:09:44.932Z,85
2018-01-01T13:10:45.487Z,80
2018-01-01T13:11:44.960Z,90
2018-01-01T13:12:45.494Z,95
2018-01-01T13:13:45.985Z,95
2018-01-01T13:14:46.530Z,95
2018-01-01T13:15:46.940Z,100
2018-01-01T13:16:45.206Z,110
2018-01-01T13:17:45.756Z,95
2018-01-01T13:18:46.302Z,90
2018-01-01T13:19:45.766Z,95
2018-01-01T13:20:45.841Z,105
2018-01-01T13:21:45.645Z,115
2018-01-01T13:22:46.330Z,120
2018-01-01T13:23:48.157Z,110
2018-01-01T13:24:46.855Z,110
2018-01-01T13:25:46.663Z,110
2018-01-01T13:26:46.953Z,115
2018-01-01T13:27:45.834Z,110
2018-01-01T13:28:47.182Z,100
2018-01-01T13:29:45.814Z,85
2018-01-01T13:30:46.177Z,80
2018-01-01T13:31:46.032Z,75
2018-01-01T13:32:46.534Z,70
2018-01-01T13:33:48.128Z,65
2018-01-01T13:34:46.623Z,60
2018-01-01T13:35:46.589Z,60
2018-01-01T13:36:46.845Z,60
2018-01-01T13:37:47.378Z,60
2018-01-01T13:38:47.223Z,60
2018-01-01T13:39:47.194Z,65
2018-01-01T13:40:47.608Z,55
2018-01-01T13:41:48.109Z,50
2018-01-01T13:42:48.311Z,50
2018-01-01T13:43:48.468Z,50
2018-01-01T13:44:47.983Z,50
2018-01-01T13:45:47.833Z,55
2018-01-01T13:46:48.400Z,55
2018-01-01T13:47:48.641Z,55
2018-01-01T13:48:48.812Z,55
2018-01-01T13:49:48.315Z,55
2018-01-01T13:50:48.971Z,55
2018-01-01T13:51:48.966Z,55
2018-01-01T13:52:48.573Z,55
2018-01-01T13:53:48.821Z,50
2018-01-01T13:54:48.748Z,50
2018-01-01T13:55:49.013Z,50
2018-01-01T13:56:50.054Z,50
2018-01-01T13:57:49.405Z,55
2018-01-01T13:58:51.496Z,55
2018-01-01T13:59:50.132Z,55
2018-01-01T14:00:50.492Z,55
2018-01-01T14:01:51.141Z,55
2018-01-01T14:02:51.380Z,55
2018-01-01T14:03:51.010Z,55
2018-01-01T14:04:51.443Z,55
2018-01-01T14:05:51.570Z,55
2018-01-01T14:06:52.096Z,55
2018-01-01T14:07:52.299Z,55
2018-01-01T14:08:52.649Z,55
2018-01-01T14:09:52.505Z,55
2018-01-01T14:10:53.469Z,55
2018-01-01T14:11:52.362Z,55
2018-01-01T14:12:52.881Z,55
2018-01-01T14:13:55.133Z,55
2018-01-01T14:14:54.178Z,50
2018-01-01T14:15:54.089Z,50
2018-01-01T14:17:38.562Z,45
2018-01-01T14:18:10.165Z,45
2018-01-01T14:18:55.726Z,45
2018-01-01T14:19:55.989Z,45
2018-01-01T14:20:55.360Z,45
2018-01-01T14:21:55.852Z,45
2018-01-01T14:22:55.596Z,45
2018-01-01T14:23:57.231Z,45
2018-01-01T14:24:55.985Z,45
2018-01-01T14:25:55.614Z,45
2018-01-01T14:26:55.859Z,40
2018-01-01T14:27:55.176Z,40
2018-01-01T14:28:55.720Z,40
2018-01-01T14:29:55.584Z,40